sensor_id;sensor_type;location;lat;lon;timestamp;pressure;altitude;pressure_sealevel;temperature;humidity
11523;BME280;70090;43.208;27.904;2023-06-22T00:00:34;101086.22;;;20.71;100.00
11523;BME280;70090;43.208;27.904;2023-06-22T00:03:00;101100.13;;;20.74;100.00
11523;BME280;70090;43.208;27.904;2023-06-22T00:05:29;101103.78;;;20.71;100.00
11523;BME280;70090;43.208;27.904;2023-06-22T00:07:55;101099.78;;;20.72;100.00
11523;BME280;70090;43.208;27.904;2023-06-22T00:10:22;101104.16;;;20.73;100.00
11523;BME280;70090;43.208;27.904;2023-06-22T00:12:49;101101.84;;;20.68;100.00
11523;BME280;70090;43.208;27.904;2023-06-22T00:15:16;101097.47;;;20.67;100.00
11523;BME280;70090;43.208;27.904;2023-06-22T00:17:43;101104.69;;;20.65;100.00
11523;BME280;70090;43.208;27.904;2023-06-22T00:20:10;101094.38;;;20.62;100.00
11523;BME280;70090;43.208;27.904;2023-06-22T00:22:39;101108.88;;;20.57;100.00
11523;BME280;70090;43.208;27.904;2023-06-22T00:25:07;101101.75;;;20.52;100.00
11523;BME280;70090;43.208;27.904;2023-06-22T00:27:34;101106.63;;;20.48;100.00
11523;BME280;70090;43.208;27.904;2023-06-22T00:30:01;101102.63;;;20.49;100.00
11523;BME280;70090;43.208;27.904;2023-06-22T00:32:28;101101.88;;;20.45;100.00
11523;BME280;70090;43.208;27.904;2023-06-22T00:34:55;101108.34;;;20.42;100.00
11523;BME280;70090;43.208;27.904;2023-06-22T00:37:22;101103.97;;;20.41;100.00
11523;BME280;70090;43.208;27.904;2023-06-22T00:39:52;101107.59;;;20.38;100.00
11523;BME280;70090;43.208;27.904;2023-06-22T00:42:19;101108.91;;;20.34;100.00
11523;BME280;70090;43.208;27.904;2023-06-22T00:44:46;101110.97;;;20.30;100.00
11523;BME280;70090;43.208;27.904;2023-06-22T00:47:15;101112.69;;;20.24;100.00
11523;BME280;70090;43.208;27.904;2023-06-22T00:49:43;101118.34;;;20.21;100.00
11523;BME280;70090;43.208;27.904;2023-06-22T00:52:11;101112.75;;;20.21;100.00
11523;BME280;70090;43.208;27.904;2023-06-22T00:54:39;101111.94;;;20.20;100.00
11523;BME280;70090;43.208;27.904;2023-06-22T00:57:12;101107.22;;;20.17;100.00
11523;BME280;70090;43.208;27.904;2023-06-22T00:59:42;101113.53;;;20.21;100.00
11523;BME280;70090;43.208;27.904;2023-06-22T01:02:09;101123.88;;;20.24;100.00
11523;BME280;70090;43.208;27.904;2023-06-22T01:04:37;101107.16;;;20.21;100.00
11523;BME280;70090;43.208;27.904;2023-06-22T01:07:10;101113.59;;;20.18;100.00
11523;BME280;70090;43.208;27.904;2023-06-22T01:09:44;101112.38;;;20.19;100.00
11523;BME280;70090;43.208;27.904;2023-06-22T01:12:18;101113.97;;;20.20;100.00
11523;BME280;70090;43.208;27.904;2023-06-22T01:14:50;101115.53;;;20.21;100.00
11523;BME280;70090;43.208;27.904;2023-06-22T01:17:21;101115.50;;;20.24;100.00
11523;BME280;70090;43.208;27.904;2023-06-22T01:19:49;101104.66;;;20.26;100.00
11523;BME280;70090;43.208;27.904;2023-06-22T01:22:21;101109.44;;;20.26;100.00
11523;BME280;70090;43.208;27.904;2023-06-22T01:24:55;101097.34;;;20.32;100.00
11523;BME280;70090;43.208;27.904;2023-06-22T01:27:40;101088.41;;;20.40;100.00
11523;BME280;70090;43.208;27.904;2023-06-22T01:30:16;101093.38;;;20.52;100.00
11523;BME280;70090;43.208;27.904;2023-06-22T01:32:43;101106.50;;;20.55;100.00
11523;BME280;70090;43.208;27.904;2023-06-22T01:35:11;101094.44;;;20.58;100.00
11523;BME280;70090;43.208;27.904;2023-06-22T01:37:39;101099.19;;;20.61;100.00
11523;BME280;70090;43.208;27.904;2023-06-22T01:40:07;101092.88;;;20.57;100.00
11523;BME280;70090;43.208;27.904;2023-06-22T01:42:35;101101.59;;;20.59;100.00
11523;BME280;70090;43.208;27.904;2023-06-22T01:45:04;101102.34;;;20.63;100.00
11523;BME280;70090;43.208;27.904;2023-06-22T01:47:33;101102.19;;;20.70;100.00
11523;BME280;70090;43.208;27.904;2023-06-22T01:50:01;101109.56;;;20.80;100.00
11523;BME280;70090;43.208;27.904;2023-06-22T01:52:28;101109.41;;;20.91;100.00
11523;BME280;70090;43.208;27.904;2023-06-22T01:54:54;101112.41;;;21.00;100.00
11523;BME280;70090;43.208;27.904;2023-06-22T01:57:23;101107.44;;;21.07;100.00
11523;BME280;70090;43.208;27.904;2023-06-22T01:59:57;101118.06;;;21.16;100.00
11523;BME280;70090;43.208;27.904;2023-06-22T02:02:28;101118.19;;;21.28;100.00
11523;BME280;70090;43.208;27.904;2023-06-22T02:05:02;101113.38;;;21.29;100.00
11523;BME280;70090;43.208;27.904;2023-06-22T02:07:39;101113.81;;;21.27;100.00
11523;BME280;70090;43.208;27.904;2023-06-22T02:10:09;101095.91;;;21.05;100.00
11523;BME280;70090;43.208;27.904;2023-06-22T02:12:39;101120.78;;;21.19;100.00
11523;BME280;70090;43.208;27.904;2023-06-22T02:15:09;101132.84;;;21.16;100.00
11523;BME280;70090;43.208;27.904;2023-06-22T02:17:38;101124.47;;;21.16;100.00
11523;BME280;70090;43.208;27.904;2023-06-22T02:20:12;101128.31;;;21.22;100.00
11523;BME280;70090;43.208;27.904;2023-06-22T02:22:39;101140.25;;;21.42;100.00
11523;BME280;70090;43.208;27.904;2023-06-22T02:25:06;101124.00;;;21.37;100.00
11523;BME280;70090;43.208;27.904;2023-06-22T02:27:33;101128.69;;;21.24;100.00
11523;BME280;70090;43.208;27.904;2023-06-22T02:30:00;101125.16;;;21.20;100.00
11523;BME280;70090;43.208;27.904;2023-06-22T02:32:27;101122.88;;;21.15;100.00
11523;BME280;70090;43.208;27.904;2023-06-22T02:34:54;101133.19;;;21.18;100.00
11523;BME280;70090;43.208;27.904;2023-06-22T02:37:22;101129.31;;;21.12;100.00
11523;BME280;70090;43.208;27.904;2023-06-22T02:39:50;101137.94;;;21.21;100.00
11523;BME280;70090;43.208;27.904;2023-06-22T02:42:17;101141.81;;;21.27;100.00
11523;BME280;70090;43.208;27.904;2023-06-22T02:44:46;101136.91;;;21.31;100.00
11523;BME280;70090;43.208;27.904;2023-06-22T02:47:12;101154.59;;;21.28;100.00
11523;BME280;70090;43.208;27.904;2023-06-22T02:49:39;101145.19;;;21.19;100.00
11523;BME280;70090;43.208;27.904;2023-06-22T02:52:07;101150.69;;;21.22;100.00
11523;BME280;70090;43.208;27.904;2023-06-22T02:54:35;101148.34;;;21.21;100.00
11523;BME280;70090;43.208;27.904;2023-06-22T02:57:03;101148.78;;;21.19;100.00
11523;BME280;70090;43.208;27.904;2023-06-22T02:59:29;101157.44;;;21.25;100.00
11523;BME280;70090;43.208;27.904;2023-06-22T03:01:56;101162.69;;;21.23;100.00
11523;BME280;70090;43.208;27.904;2023-06-22T03:04:23;101163.06;;;21.25;100.00
11523;BME280;70090;43.208;27.904;2023-06-22T03:06:50;101176.97;;;21.28;100.00
11523;BME280;70090;43.208;27.904;2023-06-22T03:09:17;101167.28;;;21.33;100.00
11523;BME280;70090;43.208;27.904;2023-06-22T03:11:45;101169.56;;;21.38;100.00
11523;BME280;70090;43.208;27.904;2023-06-22T03:14:12;101164.34;;;21.40;100.00
11523;BME280;70090;43.208;27.904;2023-06-22T03:16:39;101168.25;;;21.42;100.00
11523;BME280;70090;43.208;27.904;2023-06-22T03:19:06;101166.34;;;21.39;100.00
11523;BME280;70090;43.208;27.904;2023-06-22T03:21:33;101166.53;;;21.48;100.00
11523;BME280;70090;43.208;27.904;2023-06-22T03:23:59;101160.41;;;21.37;100.00
11523;BME280;70090;43.208;27.904;2023-06-22T03:26:26;101176.53;;;21.49;100.00
11523;BME280;70090;43.208;27.904;2023-06-22T03:28:54;101173.44;;;21.44;100.00
11523;BME280;70090;43.208;27.904;2023-06-22T03:31:22;101175.16;;;21.57;100.00
11523;BME280;70090;43.208;27.904;2023-06-22T03:33:49;101176.00;;;21.54;100.00
11523;BME280;70090;43.208;27.904;2023-06-22T03:36:16;101173.31;;;21.51;100.00
11523;BME280;70090;43.208;27.904;2023-06-22T03:38:44;101173.03;;;21.61;100.00
11523;BME280;70090;43.208;27.904;2023-06-22T03:41:11;101180.22;;;21.62;100.00
11523;BME280;70090;43.208;27.904;2023-06-22T03:43:38;101175.03;;;21.61;100.00
11523;BME280;70090;43.208;27.904;2023-06-22T03:46:06;101172.94;;;21.68;100.00
11523;BME280;70090;43.208;27.904;2023-06-22T03:48:33;101177.66;;;21.71;100.00
11523;BME280;70090;43.208;27.904;2023-06-22T03:51:01;101177.91;;;21.77;100.00
11523;BME280;70090;43.208;27.904;2023-06-22T03:53:28;101181.81;;;21.63;100.00
11523;BME280;70090;43.208;27.904;2023-06-22T03:55:55;101176.63;;;21.81;100.00
11523;BME280;70090;43.208;27.904;2023-06-22T03:58:22;101181.34;;;21.84;100.00
11523;BME280;70090;43.208;27.904;2023-06-22T04:00:50;101177.31;;;21.85;100.00
11523;BME280;70090;43.208;27.904;2023-06-22T04:03:19;101196.97;;;22.01;100.00
11523;BME280;70090;43.208;27.904;2023-06-22T04:05:45;101186.44;;;22.05;100.00
11523;BME280;70090;43.208;27.904;2023-06-22T04:08:13;101197.31;;;22.19;100.00
11523;BME280;70090;43.208;27.904;2023-06-22T04:10:40;101197.31;;;22.19;100.00
11523;BME280;70090;43.208;27.904;2023-06-22T04:13:07;101198.53;;;22.34;100.00
11523;BME280;70090;43.208;27.904;2023-06-22T04:15:34;101190.84;;;22.22;100.00
11523;BME280;70090;43.208;27.904;2023-06-22T04:18:01;101202.78;;;22.42;100.00
11523;BME280;70090;43.208;27.904;2023-06-22T04:20:29;101196.50;;;22.35;100.00
11523;BME280;70090;43.208;27.904;2023-06-22T04:22:56;101194.00;;;22.40;100.00
11523;BME280;70090;43.208;27.904;2023-06-22T04:25:23;101209.03;;;22.62;100.00
11523;BME280;70090;43.208;27.904;2023-06-22T04:27:50;101203.34;;;22.66;100.00
11523;BME280;70090;43.208;27.904;2023-06-22T04:30:17;101206.09;;;22.53;100.00
11523;BME280;70090;43.208;27.904;2023-06-22T04:32:44;101208.34;;;22.58;100.00
11523;BME280;70090;43.208;27.904;2023-06-22T04:35:23;101210.78;;;22.72;100.00
11523;BME280;70090;43.208;27.904;2023-06-22T04:37:53;101209.53;;;22.89;100.00
11523;BME280;70090;43.208;27.904;2023-06-22T04:40:21;101210.28;;;23.05;100.00
11523;BME280;70090;43.208;27.904;2023-06-22T04:42:47;101206.22;;;23.22;100.00
11523;BME280;70090;43.208;27.904;2023-06-22T04:45:18;101218.75;;;23.46;100.00
11523;BME280;70090;43.208;27.904;2023-06-22T04:47:45;101209.13;;;23.19;100.00
11523;BME280;70090;43.208;27.904;2023-06-22T04:50:12;101212.94;;;23.25;100.00
11523;BME280;70090;43.208;27.904;2023-06-22T04:52:39;101215.66;;;23.28;100.00
11523;BME280;70090;43.208;27.904;2023-06-22T04:55:08;101223.06;;;23.35;100.00
11523;BME280;70090;43.208;27.904;2023-06-22T04:57:35;101222.75;;;23.33;100.00
11523;BME280;70090;43.208;27.904;2023-06-22T05:00:05;101220.09;;;23.54;100.00
11523;BME280;70090;43.208;27.904;2023-06-22T05:02:42;101221.22;;;23.57;100.00
11523;BME280;70090;43.208;27.904;2023-06-22T05:05:09;101221.03;;;23.76;100.00
11523;BME280;70090;43.208;27.904;2023-06-22T05:07:39;101216.69;;;23.88;100.00
11523;BME280;70090;43.208;27.904;2023-06-22T05:10:10;101220.22;;;23.76;100.00
11523;BME280;70090;43.208;27.904;2023-06-22T05:12:38;101224.28;;;23.75;100.00
11523;BME280;70090;43.208;27.904;2023-06-22T05:15:06;101236.56;;;23.93;100.00
11523;BME280;70090;43.208;27.904;2023-06-22T05:17:33;101236.59;;;23.40;100.00
11523;BME280;70090;43.208;27.904;2023-06-22T05:20:00;101237.59;;;23.46;100.00
11523;BME280;70090;43.208;27.904;2023-06-22T05:22:27;101233.72;;;23.27;100.00
11523;BME280;70090;43.208;27.904;2023-06-22T05:24:54;101227.13;;;23.34;100.00
11523;BME280;70090;43.208;27.904;2023-06-22T05:27:22;101238.50;;;23.43;100.00
11523;BME280;70090;43.208;27.904;2023-06-22T05:29:49;101229.16;;;23.46;100.00
11523;BME280;70090;43.208;27.904;2023-06-22T05:32:16;101240.00;;;23.60;100.00
11523;BME280;70090;43.208;27.904;2023-06-22T05:34:44;101242.25;;;23.65;100.00
11523;BME280;70090;43.208;27.904;2023-06-22T05:37:11;101242.44;;;23.86;100.00
11523;BME280;70090;43.208;27.904;2023-06-22T05:39:38;101237.47;;;23.90;100.00
11523;BME280;70090;43.208;27.904;2023-06-22T05:42:05;101244.59;;;24.07;100.00
11523;BME280;70090;43.208;27.904;2023-06-22T05:44:33;101240.28;;;24.28;100.00
11523;BME280;70090;43.208;27.904;2023-06-22T05:47:00;101244.31;;;24.52;100.00
11523;BME280;70090;43.208;27.904;2023-06-22T05:49:28;101237.59;;;24.37;100.00
11523;BME280;70090;43.208;27.904;2023-06-22T05:51:58;101236.72;;;24.15;100.00
11523;BME280;70090;43.208;27.904;2023-06-22T05:54:25;101238.03;;;24.48;100.00
11523;BME280;70090;43.208;27.904;2023-06-22T05:56:51;101232.22;;;24.76;100.00
11523;BME280;70090;43.208;27.904;2023-06-22T05:59:18;101233.28;;;24.70;100.00
11523;BME280;70090;43.208;27.904;2023-06-22T06:01:47;101232.34;;;24.73;100.00
11523;BME280;70090;43.208;27.904;2023-06-22T06:04:16;101225.84;;;24.76;100.00
11523;BME280;70090;43.208;27.904;2023-06-22T06:06:43;101228.59;;;24.88;100.00
11523;BME280;70090;43.208;27.904;2023-06-22T06:09:10;101228.47;;;24.92;100.00
11523;BME280;70090;43.208;27.904;2023-06-22T06:11:37;101228.72;;;24.85;100.00
11523;BME280;70090;43.208;27.904;2023-06-22T06:14:04;101230.72;;;24.97;100.00
11523;BME280;70090;43.208;27.904;2023-06-22T06:16:31;101228.09;;;25.02;100.00
11523;BME280;70090;43.208;27.904;2023-06-22T06:19:00;101225.94;;;25.06;100.00
11523;BME280;70090;43.208;27.904;2023-06-22T06:21:27;101233.63;;;25.27;100.00
11523;BME280;70090;43.208;27.904;2023-06-22T06:23:54;101240.00;;;25.40;100.00
11523;BME280;70090;43.208;27.904;2023-06-22T06:26:20;101231.41;;;25.44;100.00
11523;BME280;70090;43.208;27.904;2023-06-22T06:28:55;101237.03;;;25.44;100.00
11523;BME280;70090;43.208;27.904;2023-06-22T06:31:22;101234.22;;;25.44;100.00
11523;BME280;70090;43.208;27.904;2023-06-22T06:33:49;101225.88;;;25.62;100.00
11523;BME280;70090;43.208;27.904;2023-06-22T06:36:17;101232.00;;;25.90;100.00
11523;BME280;70090;43.208;27.904;2023-06-22T06:38:44;101227.09;;;26.12;100.00
11523;BME280;70090;43.208;27.904;2023-06-22T06:41:12;101241.56;;;26.32;100.00
11523;BME280;70090;43.208;27.904;2023-06-22T06:43:39;101234.06;;;26.38;100.00
11523;BME280;70090;43.208;27.904;2023-06-22T06:46:07;101231.34;;;26.56;100.00
11523;BME280;70090;43.208;27.904;2023-06-22T06:48:34;101225.38;;;26.72;100.00
11523;BME280;70090;43.208;27.904;2023-06-22T06:51:01;101230.13;;;26.93;100.00
11523;BME280;70090;43.208;27.904;2023-06-22T06:53:30;101231.03;;;26.72;100.00
11523;BME280;70090;43.208;27.904;2023-06-22T06:55:56;101235.59;;;26.97;100.00
11523;BME280;70090;43.208;27.904;2023-06-22T06:58:23;101231.38;;;27.01;100.00
11523;BME280;70090;43.208;27.904;2023-06-22T07:00:50;101241.41;;;26.84;100.00
11523;BME280;70090;43.208;27.904;2023-06-22T07:03:17;101247.88;;;27.12;100.00
11523;BME280;70090;43.208;27.904;2023-06-22T07:05:44;101246.16;;;27.14;100.00
11523;BME280;70090;43.208;27.904;2023-06-22T07:08:11;101254.78;;;27.20;100.00
11523;BME280;70090;43.208;27.904;2023-06-22T07:10:39;101253.66;;;27.08;100.00
11523;BME280;70090;43.208;27.904;2023-06-22T07:13:06;101256.47;;;27.08;100.00
11523;BME280;70090;43.208;27.904;2023-06-22T07:15:33;101252.41;;;27.36;91.67
11523;BME280;70090;43.208;27.904;2023-06-22T07:18:00;101258.22;;;27.60;90.21
11523;BME280;70090;43.208;27.904;2023-06-22T07:20:26;101254.25;;;27.66;87.42
11523;BME280;70090;43.208;27.904;2023-06-22T07:22:53;101252.22;;;27.76;84.80
11523;BME280;70090;43.208;27.904;2023-06-22T07:25:20;101248.06;;;27.95;83.41
11523;BME280;70090;43.208;27.904;2023-06-22T07:28:00;101246.75;;;28.14;80.76
11523;BME280;70090;43.208;27.904;2023-06-22T07:30:28;101245.94;;;28.13;79.05
11523;BME280;70090;43.208;27.904;2023-06-22T07:32:54;101243.50;;;28.39;78.47
11523;BME280;70090;43.208;27.904;2023-06-22T07:35:21;101245.84;;;28.63;78.05
11523;BME280;70090;43.208;27.904;2023-06-22T07:37:48;101250.56;;;28.67;74.64
11523;BME280;70090;43.208;27.904;2023-06-22T07:40:15;101248.75;;;28.78;73.87
11523;BME280;70090;43.208;27.904;2023-06-22T07:42:42;101255.50;;;28.80;74.01
11523;BME280;70090;43.208;27.904;2023-06-22T07:45:10;101250.91;;;28.92;72.78
11523;BME280;70090;43.208;27.904;2023-06-22T07:47:37;101251.06;;;29.12;71.14
11523;BME280;70090;43.208;27.904;2023-06-22T07:50:05;101258.28;;;29.27;70.68
11523;BME280;70090;43.208;27.904;2023-06-22T07:52:32;101251.16;;;29.32;69.31
11523;BME280;70090;43.208;27.904;2023-06-22T07:54:59;101248.53;;;29.43;69.15
11523;BME280;70090;43.208;27.904;2023-06-22T07:57:26;101255.72;;;29.53;68.53
11523;BME280;70090;43.208;27.904;2023-06-22T07:59:58;101248.50;;;29.66;69.88
11523;BME280;70090;43.208;27.904;2023-06-22T08:02:27;101255.44;;;29.80;69.02
11523;BME280;70090;43.208;27.904;2023-06-22T08:04:54;101231.38;;;29.61;68.97
11523;BME280;70090;43.208;27.904;2023-06-22T08:07:20;101258.38;;;29.85;70.50
11523;BME280;70090;43.208;27.904;2023-06-22T08:09:48;101254.94;;;29.96;69.68
11523;BME280;70090;43.208;27.904;2023-06-22T08:12:15;101250.75;;;30.06;70.44
11523;BME280;70090;43.208;27.904;2023-06-22T08:14:43;101255.75;;;30.11;71.40
11523;BME280;70090;43.208;27.904;2023-06-22T08:17:10;101249.34;;;30.16;72.30
11523;BME280;70090;43.208;27.904;2023-06-22T08:19:39;101252.50;;;30.03;71.13
11523;BME280;70090;43.208;27.904;2023-06-22T08:22:06;101244.28;;;29.91;72.18
11523;BME280;70090;43.208;27.904;2023-06-22T08:24:33;101244.28;;;29.91;72.31
11523;BME280;70090;43.208;27.904;2023-06-22T08:27:00;101249.38;;;29.87;72.92
11523;BME280;70090;43.208;27.904;2023-06-22T08:29:26;101242.13;;;29.86;73.93
11523;BME280;70090;43.208;27.904;2023-06-22T08:31:53;101247.97;;;29.97;74.18
11523;BME280;70090;43.208;27.904;2023-06-22T08:34:20;101245.06;;;30.06;71.58
11523;BME280;70090;43.208;27.904;2023-06-22T08:36:51;101250.25;;;29.93;71.21
11523;BME280;70090;43.208;27.904;2023-06-22T08:39:18;101243.72;;;29.58;72.83
11523;BME280;70090;43.208;27.904;2023-06-22T08:41:45;101248.88;;;29.45;72.68
11523;BME280;70090;43.208;27.904;2023-06-22T08:44:12;101233.19;;;29.20;72.55
11523;BME280;70090;43.208;27.904;2023-06-22T08:46:39;101242.22;;;29.10;74.46
11523;BME280;70090;43.208;27.904;2023-06-22T08:49:07;101247.53;;;29.17;75.18
11523;BME280;70090;43.208;27.904;2023-06-22T08:51:35;101238.75;;;29.15;75.05
11523;BME280;70090;43.208;27.904;2023-06-22T08:54:04;101242.63;;;29.03;75.46
11523;BME280;70090;43.208;27.904;2023-06-22T08:56:31;101241.88;;;29.17;77.00
11523;BME280;70090;43.208;27.904;2023-06-22T08:58:58;101227.00;;;29.22;75.79
11523;BME280;70090;43.208;27.904;2023-06-22T09:01:25;101246.69;;;29.40;74.27
11523;BME280;70090;43.208;27.904;2023-06-22T09:03:54;101243.28;;;29.36;75.44
11523;BME280;70090;43.208;27.904;2023-06-22T09:06:23;101241.72;;;29.35;75.12
11523;BME280;70090;43.208;27.904;2023-06-22T09:08:50;101237.94;;;29.14;75.20
11523;BME280;70090;43.208;27.904;2023-06-22T09:11:18;101239.78;;;29.03;77.09
11523;BME280;70090;43.208;27.904;2023-06-22T09:13:45;101240.94;;;28.96;77.78
11523;BME280;70090;43.208;27.904;2023-06-22T09:16:12;101244.88;;;29.13;78.84
11523;BME280;70090;43.208;27.904;2023-06-22T09:18:39;101247.38;;;29.35;77.32
11523;BME280;70090;43.208;27.904;2023-06-22T09:21:07;101251.94;;;29.70;77.92
11523;BME280;70090;43.208;27.904;2023-06-22T09:23:34;101250.44;;;29.89;75.33
11523;BME280;70090;43.208;27.904;2023-06-22T09:26:01;101252.91;;;30.11;74.53
11523;BME280;70090;43.208;27.904;2023-06-22T09:28:30;101240.63;;;30.19;74.88
11523;BME280;70090;43.208;27.904;2023-06-22T09:30:58;101241.81;;;30.27;74.79
11523;BME280;70090;43.208;27.904;2023-06-22T09:33:26;101255.97;;;30.42;75.87
11523;BME280;70090;43.208;27.904;2023-06-22T09:35:52;101253.00;;;30.51;76.24
11523;BME280;70090;43.208;27.904;2023-06-22T09:38:19;101247.84;;;30.69;76.57
11523;BME280;70090;43.208;27.904;2023-06-22T09:40:46;101248.50;;;30.79;77.62
11523;BME280;70090;43.208;27.904;2023-06-22T09:43:13;101247.50;;;30.62;78.81
11523;BME280;70090;43.208;27.904;2023-06-22T09:45:41;101251.22;;;30.53;79.33
11523;BME280;70090;43.208;27.904;2023-06-22T09:48:08;101258.09;;;30.47;80.49
11523;BME280;70090;43.208;27.904;2023-06-22T09:50:36;101262.16;;;30.26;80.77
11523;BME280;70090;43.208;27.904;2023-06-22T09:53:03;101259.94;;;30.01;81.99
11523;BME280;70090;43.208;27.904;2023-06-22T09:55:30;101264.81;;;30.00;84.23
11523;BME280;70090;43.208;27.904;2023-06-22T09:57:56;101263.06;;;29.74;84.41
11523;BME280;70090;43.208;27.904;2023-06-22T10:00:23;101266.50;;;29.78;86.62
11523;BME280;70090;43.208;27.904;2023-06-22T10:02:53;101263.25;;;29.85;85.59
11523;BME280;70090;43.208;27.904;2023-06-22T10:05:21;101261.50;;;29.87;84.42
11523;BME280;70090;43.208;27.904;2023-06-22T10:07:48;101258.38;;;30.00;82.19
11523;BME280;70090;43.208;27.904;2023-06-22T10:10:15;101260.13;;;30.12;81.86
11523;BME280;70090;43.208;27.904;2023-06-22T10:12:43;101257.38;;;29.88;85.21
11523;BME280;70090;43.208;27.904;2023-06-22T10:15:10;101254.97;;;29.67;84.76
11523;BME280;70090;43.208;27.904;2023-06-22T10:17:38;101270.91;;;29.79;84.99
11523;BME280;70090;43.208;27.904;2023-06-22T10:20:08;101262.88;;;29.92;82.21
11523;BME280;70090;43.208;27.904;2023-06-22T10:22:38;101255.25;;;29.98;78.06
11523;BME280;70090;43.208;27.904;2023-06-22T10:25:06;101257.22;;;30.06;73.75
11523;BME280;70090;43.208;27.904;2023-06-22T10:27:33;101265.13;;;30.17;73.23
11523;BME280;70090;43.208;27.904;2023-06-22T10:30:00;101269.50;;;30.18;75.63
11523;BME280;70090;43.208;27.904;2023-06-22T10:32:27;101260.69;;;30.01;75.72
11523;BME280;70090;43.208;27.904;2023-06-22T10:34:55;101277.06;;;29.77;73.96
11523;BME280;70090;43.208;27.904;2023-06-22T10:37:24;101249.38;;;29.58;77.13
11523;BME280;70090;43.208;27.904;2023-06-22T10:39:51;101269.25;;;29.72;79.22
11523;BME280;70090;43.208;27.904;2023-06-22T10:42:17;101260.84;;;29.92;82.46
11523;BME280;70090;43.208;27.904;2023-06-22T10:44:44;101259.75;;;30.19;84.85
11523;BME280;70090;43.208;27.904;2023-06-22T10:47:11;101258.53;;;30.40;85.57
11523;BME280;70090;43.208;27.904;2023-06-22T10:49:38;101243.25;;;30.37;85.90
11523;BME280;70090;43.208;27.904;2023-06-22T10:52:06;101249.84;;;30.49;86.91
11523;BME280;70090;43.208;27.904;2023-06-22T10:54:35;101242.31;;;30.46;85.57
11523;BME280;70090;43.208;27.904;2023-06-22T10:57:03;101251.78;;;30.23;87.68
11523;BME280;70090;43.208;27.904;2023-06-22T10:59:30;101252.88;;;30.25;89.11
11523;BME280;70090;43.208;27.904;2023-06-22T11:01:57;101249.00;;;30.43;89.99
11523;BME280;70090;43.208;27.904;2023-06-22T11:04:24;101245.22;;;30.66;88.03
11523;BME280;70090;43.208;27.904;2023-06-22T11:06:51;101243.00;;;30.75;86.63
11523;BME280;70090;43.208;27.904;2023-06-22T11:09:18;101245.94;;;30.81;85.97
11523;BME280;70090;43.208;27.904;2023-06-22T11:11:51;101254.84;;;30.88;84.74
11523;BME280;70090;43.208;27.904;2023-06-22T11:14:18;101251.34;;;30.79;84.71
11523;BME280;70090;43.208;27.904;2023-06-22T11:16:45;101253.16;;;30.82;86.27
11523;BME280;70090;43.208;27.904;2023-06-22T11:19:12;101246.66;;;30.76;87.52
11523;BME280;70090;43.208;27.904;2023-06-22T11:21:39;101237.03;;;30.39;88.94
11523;BME280;70090;43.208;27.904;2023-06-22T11:24:06;101241.72;;;29.93;93.73
11523;BME280;70090;43.208;27.904;2023-06-22T11:26:33;101235.59;;;29.80;94.94
11523;BME280;70090;43.208;27.904;2023-06-22T11:29:02;101228.81;;;29.92;96.46
11523;BME280;70090;43.208;27.904;2023-06-22T11:31:30;101250.75;;;30.06;96.08
11523;BME280;70090;43.208;27.904;2023-06-22T11:33:57;101250.25;;;30.07;97.29
11523;BME280;70090;43.208;27.904;2023-06-22T11:36:25;101245.72;;;30.30;97.68
11523;BME280;70090;43.208;27.904;2023-06-22T11:38:52;101256.13;;;30.53;96.09
11523;BME280;70090;43.208;27.904;2023-06-22T11:41:19;101247.41;;;30.76;95.41
11523;BME280;70090;43.208;27.904;2023-06-22T11:43:46;101248.50;;;30.99;93.60
11523;BME280;70090;43.208;27.904;2023-06-22T11:46:14;101252.47;;;31.27;92.04
11523;BME280;70090;43.208;27.904;2023-06-22T11:48:41;101250.03;;;31.40;89.94
11523;BME280;70090;43.208;27.904;2023-06-22T11:51:08;101248.63;;;31.55;89.34
11523;BME280;70090;43.208;27.904;2023-06-22T11:53:35;101256.38;;;31.54;88.72
11523;BME280;70090;43.208;27.904;2023-06-22T11:56:04;101246.59;;;31.61;88.56
11523;BME280;70090;43.208;27.904;2023-06-22T11:58:31;101245.22;;;31.51;88.08
11523;BME280;70090;43.208;27.904;2023-06-22T12:00:58;101238.41;;;30.98;91.11
11523;BME280;70090;43.208;27.904;2023-06-22T12:03:26;101240.38;;;30.92;90.80
11523;BME280;70090;43.208;27.904;2023-06-22T12:05:53;101229.66;;;31.01;91.82
11523;BME280;70090;43.208;27.904;2023-06-22T12:08:20;101241.94;;;31.13;90.14
11523;BME280;70090;43.208;27.904;2023-06-22T12:10:49;101233.06;;;31.05;90.53
11523;BME280;70090;43.208;27.904;2023-06-22T12:13:16;101237.81;;;31.14;91.04
11523;BME280;70090;43.208;27.904;2023-06-22T12:15:43;101241.31;;;31.03;91.63
11523;BME280;70090;43.208;27.904;2023-06-22T12:18:10;101233.38;;;30.67;94.29
11523;BME280;70090;43.208;27.904;2023-06-22T12:20:41;101230.75;;;30.64;94.96
11523;BME280;70090;43.208;27.904;2023-06-22T12:23:07;101225.47;;;30.42;96.03
11523;BME280;70090;43.208;27.904;2023-06-22T12:25:34;101233.25;;;30.42;97.36
11523;BME280;70090;43.208;27.904;2023-06-22T12:28:01;101226.63;;;30.50;98.82
11523;BME280;70090;43.208;27.904;2023-06-22T12:30:29;101231.41;;;30.59;97.13
11523;BME280;70090;43.208;27.904;2023-06-22T12:32:56;101231.63;;;30.21;99.52
11523;BME280;70090;43.208;27.904;2023-06-22T12:35:24;101222.66;;;30.42;100.00
11523;BME280;70090;43.208;27.904;2023-06-22T12:37:52;101224.59;;;30.71;98.47